KWLD

Details ICAO KWLD
Name STROTHER FLD
Region United States
Timezone America/Chicago (UTC-5.0)
Plans Departing 2
Arriving 6
Stats Elevation 1,160 ft / 354 m (AMSL)
Location 37.168205° -97.038059°
Runways 2
Magnetic Variation 3.362° E
Sunrise 2018-05-21 11:16:39 UTC / 2018-05-21 06:16:39 Local
Sunset 2018-05-22 01:35:43 UTC / 2018-05-21 20:35:43 Local
Advertisement - Login to hide

Runways

ID Width Length Bearing (true) Bearing (mag) Surface Threshold Offset Overrun Length
13 75 ft / 23 m 3,138 ft / 956 m 140.13° 136.77° Asphalt 0 ft / 0 m 0 ft / 0 m
17 100 ft / 30 m 5,517 ft / 1,682 m 179.99° 176.63° Asphalt 0 ft / 0 m 0 ft / 0 m
31 75 ft / 23 m 3,138 ft / 956 m 320.14° 316.78° Asphalt 0 ft / 0 m 0 ft / 0 m
35 100 ft / 30 m 5,517 ft / 1,682 m 359.99° 356.63° Asphalt 0 ft / 0 m 0 ft / 0 m

Map

Weather


0- 5 10 15 20 25 30 35+ Temperature / ° C

Clouds and Precipitation
Forecast for 2018-05-21 18:00 UTC. Updated an hour ago

Ground ~20,000 ft ~40,000 ft Winds

METAR

KWLD 211754Z AUTO 20004KT 10SM CLR 22/16 A3010 RMK AO2 SLP188 T02220156 10222 20122 58009

TAF

Not found

Frequencies

Recorded 118.02 MHz ASOS
Unicom 122.80 MHz CTAF/UNICOM
Warning: Do not use this data for real-world aviation or navigation. No guarantee of current accuracy is given.